createdAt,value
2018-02-04T00:00:53.524Z,100944.95
2018-02-04T00:03:19.278Z,100948.84
2018-02-04T00:05:45.035Z,100951.51
2018-02-04T00:08:10.786Z,100944.13
2018-02-04T00:10:36.559Z,100945.87
2018-02-04T00:13:02.314Z,100939.77
2018-02-04T00:15:28.148Z,100954.08
2018-02-04T00:17:53.933Z,100951.09
2018-02-04T00:20:19.683Z,100958.48
2018-02-04T00:22:45.466Z,100958.00
2018-02-04T00:25:11.224Z,100964.52
2018-02-04T00:27:36.976Z,100962.47
2018-02-04T00:30:02.759Z,100966.33
2018-02-04T00:32:28.528Z,100961.52
2018-02-04T00:34:54.318Z,100964.17
2018-02-04T00:37:20.072Z,100967.62
2018-02-04T00:39:45.840Z,100968.52
2018-02-04T00:42:11.595Z,100975.04
2018-02-04T00:44:37.368Z,100972.83
2018-02-04T00:47:03.138Z,100977.98
2018-02-04T00:49:28.897Z,100977.64
2018-02-04T00:51:54.658Z,100981.94
2018-02-04T00:54:20.411Z,100975.01
2018-02-04T00:56:46.174Z,100985.91
2018-02-04T00:59:11.934Z,100984.54
2018-02-04T01:01:37.707Z,100991.44
2018-02-04T01:04:03.474Z,100989.73
2018-02-04T01:06:29.241Z,100997.91
2018-02-04T01:08:54.998Z,100999.58
2018-02-04T01:11:20.773Z,101003.67
2018-02-04T01:13:46.583Z,101003.03
2018-02-04T01:16:12.338Z,100998.55
2018-02-04T01:18:38.100Z,101008.25
2018-02-04T01:21:03.879Z,101018.57
2018-02-04T01:23:29.641Z,101018.09
2018-02-04T01:25:55.414Z,101005.25
2018-02-04T01:28:21.171Z,101011.33
2018-02-04T01:30:46.950Z,101019.56
2018-02-04T01:33:12.718Z,101022.56
2018-02-04T01:35:38.486Z,101024.75
2018-02-04T01:38:04.273Z,101023.02
2018-02-04T01:40:30.015Z,101025.71
2018-02-04T01:42:55.782Z,101030.12
2018-02-04T01:45:21.846Z,101031.00
2018-02-04T01:48:00.108Z,101032.34
2018-02-04T01:50:25.859Z,101030.22
2018-02-04T01:52:51.639Z,101032.02
2018-02-04T01:55:17.400Z,101036.33
2018-02-04T01:57:43.150Z,101038.45
2018-02-04T02:00:08.918Z,101038.77
2018-02-04T02:02:35.532Z,101041.77
2018-02-04T02:05:01.957Z,101037.70
2018-02-04T02:07:28.532Z,101047.72
2018-02-04T02:09:54.362Z,101051.34
2018-02-04T02:12:20.544Z,101058.14
2018-02-04T02:14:47.402Z,101063.78
2018-02-04T02:17:13.173Z,101069.92
2018-02-04T02:19:39.157Z,101073.00
2018-02-04T02:22:04.953Z,101083.12
2018-02-04T02:24:30.731Z,101079.84
2018-02-04T02:26:56.912Z,101079.87
2018-02-04T02:29:22.698Z,101091.52
2018-02-04T02:31:48.448Z,101091.36
2018-02-04T02:34:14.501Z,101101.50
2018-02-04T02:36:40.280Z,101098.72
2018-02-04T02:39:06.370Z,101101.96
2018-02-04T02:41:32.123Z,101116.94
2018-02-04T02:43:57.908Z,101134.59
2018-02-04T02:46:23.686Z,101133.67
2018-02-04T02:48:49.455Z,101149.80
2018-02-04T02:51:15.261Z,101151.06
2018-02-04T02:53:41.272Z,101155.58
2018-02-04T02:56:07.306Z,101160.24
2018-02-04T02:58:33.074Z,101163.13
2018-02-04T03:00:58.826Z,101173.39
2018-02-04T03:03:24.621Z,101173.67
2018-02-04T03:05:50.647Z,101181.30
2018-02-04T03:08:16.416Z,101185.06
2018-02-04T03:10:42.208Z,101185.06
2018-02-04T03:13:07.970Z,101189.32
2018-02-04T03:15:33.748Z,101192.81
2018-02-04T03:17:59.683Z,101201.88
2018-02-04T03:20:25.455Z,101209.95
2018-02-04T03:22:51.273Z,101220.64
2018-02-04T03:25:17.055Z,101235.50
2018-02-04T03:27:42.803Z,101236.84
2018-02-04T03:30:08.775Z,101243.86
2018-02-04T03:32:34.602Z,101247.25
2018-02-04T03:35:00.383Z,101253.33
2018-02-04T03:37:26.173Z,101263.67
2018-02-04T03:39:51.950Z,101266.27
2018-02-04T03:42:17.695Z,101264.74
2018-02-04T03:44:43.566Z,101273.31
2018-02-04T03:47:09.366Z,101275.31
2018-02-04T03:49:35.143Z,101287.57
2018-02-04T03:52:00.893Z,101290.25
2018-02-04T03:54:26.646Z,101288.64
2018-02-04T03:56:52.406Z,101300.40
2018-02-04T03:59:18.156Z,101295.46
2018-02-04T04:01:43.923Z,101302.52
2018-02-04T04:04:09.675Z,101305.77
2018-02-04T04:06:35.442Z,101312.30
2018-02-04T04:09:01.267Z,101319.86
2018-02-04T04:11:26.983Z,101333.17
2018-02-04T04:13:52.747Z,101330.73
2018-02-04T04:16:18.506Z,101340.02
2018-02-04T04:18:44.358Z,101345.42
2018-02-04T04:21:10.126Z,101353.86
2018-02-04T04:23:35.944Z,101364.86
2018-02-04T04:26:01.724Z,101362.78
2018-02-04T04:28:27.473Z,101370.30
2018-02-04T04:30:53.235Z,101368.18
2018-02-04T04:33:18.995Z,101379.06
2018-02-04T04:35:44.779Z,101381.73
2018-02-04T04:38:10.526Z,101389.61
2018-02-04T04:40:36.270Z,101401.83
2018-02-04T04:43:02.037Z,101404.52
2018-02-04T04:45:27.774Z,101409.31
2018-02-04T04:47:53.539Z,101404.52
2018-02-04T04:50:19.422Z,101409.48
2018-02-04T04:52:45.240Z,101414.48
2018-02-04T04:55:10.975Z,101419.76
2018-02-04T04:57:36.911Z,101420.49
2018-02-04T05:00:02.686Z,101427.75
2018-02-04T05:02:28.458Z,101437.05
2018-02-04T05:04:54.519Z,101438.94
2018-02-04T05:07:20.317Z,101447.17
2018-02-04T05:09:46.071Z,101449.16
2018-02-04T05:12:12.558Z,101445.61
2018-02-04T05:14:38.310Z,101452.42
2018-02-04T05:17:04.096Z,101465.41
2018-02-04T05:19:29.844Z,101479.65
2018-02-04T05:21:55.637Z,101480.15
2018-02-04T05:24:21.393Z,101486.50
2018-02-04T05:26:47.183Z,101499.80
2018-02-04T05:29:12.959Z,101494.87
2018-02-04T05:31:38.718Z,101508.39
2018-02-04T05:34:04.484Z,101514.33
2018-02-04T05:36:30.258Z,101520.23
2018-02-04T05:38:56.048Z,101517.29
2018-02-04T05:41:21.812Z,101517.83
2018-02-04T05:43:47.613Z,101526.21
2018-02-04T05:46:13.387Z,101525.19
2018-02-04T05:48:39.175Z,101527.66
2018-02-04T05:51:04.953Z,101539.04
2018-02-04T05:53:30.724Z,101542.17
2018-02-04T05:55:56.486Z,101552.25
2018-02-04T05:58:22.264Z,101554.00
2018-02-04T06:00:48.022Z,101562.33
2018-02-04T06:03:13.799Z,101566.27
2018-02-04T06:05:39.575Z,101558.03
2018-02-04T06:08:05.356Z,101573.63
2018-02-04T06:10:31.122Z,101579.48
2018-02-04T06:12:56.903Z,101579.75
2018-02-04T06:15:22.666Z,101587.49
2018-02-04T06:17:48.435Z,101590.81
2018-02-04T06:20:14.237Z,101605.00
2018-02-04T06:22:40.020Z,101599.50
2018-02-04T06:25:05.803Z,101613.63
2018-02-04T06:27:33.262Z,101617.98
2018-02-04T06:29:59.057Z,101614.53
2018-02-04T06:32:24.838Z,101627.47
2018-02-04T06:34:50.631Z,101626.47
2018-02-04T06:37:16.394Z,101633.43
2018-02-04T06:39:42.154Z,101642.17
2018-02-04T06:42:07.920Z,101656.90
2018-02-04T06:44:33.702Z,101653.86
2018-02-04T06:46:59.467Z,101666.44
2018-02-04T06:49:25.262Z,101672.34
2018-02-04T06:51:51.025Z,101671.92
2018-02-04T06:54:16.782Z,101679.53
2018-02-04T06:56:42.556Z,101676.22
2018-02-04T06:59:08.343Z,101693.70
2018-02-04T07:01:34.101Z,101700.94
2018-02-04T07:03:59.890Z,101706.73
2018-02-04T07:06:25.666Z,101721.98
2018-02-04T07:08:51.449Z,101717.42
2018-02-04T07:11:17.211Z,101726.71
2018-02-04T07:13:42.988Z,101738.59
2018-02-04T07:16:08.754Z,101738.23
2018-02-04T07:18:34.520Z,101741.39
2018-02-04T07:21:00.296Z,101750.93
2018-02-04T07:23:26.054Z,101750.09
2018-02-04T07:25:51.828Z,101754.48
2018-02-04T07:28:17.583Z,101754.63
2018-02-04T07:30:43.377Z,101756.97
2018-02-04T07:33:09.136Z,101762.62
2018-02-04T07:35:34.931Z,101769.27
2018-02-04T07:38:00.696Z,101769.36
2018-02-04T07:40:26.468Z,101765.14
2018-02-04T07:42:52.220Z,101766.58
2018-02-04T07:45:18.000Z,101765.37
2018-02-04T07:47:43.775Z,101764.17
2018-02-04T07:50:09.555Z,101763.86
2018-02-04T07:52:35.320Z,101765.70
2018-02-04T07:55:01.121Z,101776.33
2018-02-04T07:57:26.872Z,101777.68
2018-02-04T07:59:52.647Z,101776.96
2018-02-04T08:02:18.399Z,101780.09
2018-02-04T08:04:44.155Z,101780.02
2018-02-04T08:07:09.976Z,101794.32
2018-02-04T08:09:35.703Z,101789.03
2018-02-04T08:12:01.464Z,101792.98
2018-02-04T08:14:27.227Z,101795.31
2018-02-04T08:16:53.002Z,101796.25
2018-02-04T08:19:18.771Z,101800.70
2018-02-04T08:21:44.593Z,101807.16
2018-02-04T08:24:10.309Z,101808.55
2018-02-04T08:26:36.085Z,101808.20
2018-02-04T08:29:01.839Z,101812.90
2018-02-04T08:31:27.620Z,101811.59
2018-02-04T08:33:53.374Z,101818.70
2018-02-04T08:36:19.155Z,101820.00
2018-02-04T08:38:44.908Z,101825.29
2018-02-04T08:41:10.662Z,101826.27
2018-02-04T08:43:36.427Z,101831.66
2018-02-04T08:46:02.213Z,101833.45
2018-02-04T08:48:28.023Z,101838.57
2018-02-04T08:50:53.783Z,101838.34
2018-02-04T08:53:19.534Z,101840.13
2018-02-04T08:55:45.306Z,101842.78
2018-02-04T08:58:11.071Z,101836.81
2018-02-04T09:00:37.051Z,101852.89
2018-02-04T09:03:03.002Z,101857.73
2018-02-04T09:05:30.052Z,101859.89
2018-02-04T09:07:55.866Z,101873.45
2018-02-04T09:10:21.654Z,101877.41
2018-02-04T09:12:49.119Z,101874.75
2018-02-04T09:15:15.063Z,101877.86
2018-02-04T09:17:40.840Z,101873.13
2018-02-04T09:20:06.603Z,101875.78
2018-02-04T09:22:32.379Z,101889.66
2018-02-04T09:24:58.136Z,101888.31
2018-02-04T09:27:23.911Z,101898.37
2018-02-04T09:29:49.667Z,101905.30
2018-02-04T09:32:15.455Z,101905.78
2018-02-04T09:34:42.874Z,101906.59
2018-02-04T09:37:10.007Z,101914.86
2018-02-04T09:39:36.731Z,101917.96
2018-02-04T09:42:02.614Z,101924.88
2018-02-04T09:44:28.388Z,101926.19
2018-02-04T09:46:54.156Z,101931.21
2018-02-04T09:49:19.921Z,101930.81
2018-02-04T09:51:45.733Z,101950.30
2018-02-04T09:54:11.487Z,101951.42
2018-02-04T09:56:37.303Z,101955.41
2018-02-04T09:59:03.079Z,101957.89
2018-02-04T10:01:28.900Z,101960.89
2018-02-04T10:03:54.671Z,101965.39
2018-02-04T10:06:20.456Z,101975.85
2018-02-04T10:08:46.239Z,101974.06
2018-02-04T10:11:12.004Z,101978.10
2018-02-04T10:13:38.099Z,101985.69
2018-02-04T10:16:04.581Z,101980.52
2018-02-04T10:18:30.353Z,101989.86
2018-02-04T10:20:56.124Z,101981.69
2018-02-04T10:23:21.896Z,101997.77
2018-02-04T10:25:47.666Z,102000.32
2018-02-04T10:28:13.441Z,101993.81
2018-02-04T10:30:39.466Z,101999.55
2018-02-04T10:33:05.259Z,102003.87
2018-02-04T10:35:31.019Z,102001.77
2018-02-04T10:37:56.794Z,102009.22
2018-02-04T10:40:22.562Z,102017.08
2018-02-04T10:42:48.334Z,102021.80
2018-02-04T10:45:14.096Z,102023.51
2018-02-04T10:47:39.867Z,102020.05
2018-02-04T10:50:05.622Z,102036.97
2018-02-04T10:52:31.415Z,102028.71
2018-02-04T10:54:57.175Z,102038.23
2018-02-04T10:57:22.951Z,102031.31
2018-02-04T10:59:48.719Z,102038.02
2018-02-04T11:02:14.478Z,102039.78
2018-02-04T11:04:40.249Z,102049.74
2018-02-04T11:07:06.002Z,102021.84
2018-02-04T11:09:31.790Z,102063.52
2018-02-04T11:11:57.568Z,102059.61
2018-02-04T11:14:23.347Z,102068.73
2018-02-04T11:16:49.119Z,102068.78
2018-02-04T11:19:14.882Z,102068.78
2018-02-04T11:21:40.639Z,102068.44
2018-02-04T11:24:06.420Z,102075.09
2018-02-04T11:26:32.191Z,102079.35
2018-02-04T11:28:57.955Z,102082.51
2018-02-04T11:31:23.715Z,102086.91
2018-02-04T11:33:49.490Z,102093.52
2018-02-04T11:36:15.238Z,102094.23
2018-02-04T11:38:41.003Z,102096.03
2018-02-04T11:41:06.776Z,102099.08
2018-02-04T11:43:32.535Z,102102.89
2018-02-04T11:45:58.299Z,102102.49
2018-02-04T11:48:24.076Z,102104.25
2018-02-04T11:50:49.851Z,102107.30
2018-02-04T11:53:15.611Z,102117.27
2018-02-04T11:55:41.390Z,102110.27
2018-02-04T11:58:07.142Z,102107.66
2018-02-04T12:00:32.936Z,102119.92
2018-02-04T12:02:58.676Z,102118.28
2018-02-04T12:05:24.418Z,102130.59
2018-02-04T12:07:50.168Z,102132.36
2018-02-04T12:10:15.938Z,102134.92
2018-02-04T12:12:41.706Z,102135.77
2018-02-04T12:15:07.479Z,102139.31
2018-02-04T12:17:33.215Z,102140.66
2018-02-04T12:19:58.962Z,102133.91
2018-02-04T12:22:24.711Z,102140.17
2018-02-04T12:24:50.472Z,102151.09
2018-02-04T12:27:16.226Z,102156.16
2018-02-04T12:29:41.982Z,102157.01
2018-02-04T12:32:07.748Z,102156.05
2018-02-04T12:34:33.498Z,102156.76
2018-02-04T12:36:59.275Z,102162.87
2018-02-04T12:39:25.040Z,102167.23
2018-02-04T12:41:50.807Z,102158.22
2018-02-04T12:44:16.571Z,102166.97
2018-02-04T12:46:42.347Z,102173.50
2018-02-04T12:49:08.098Z,102174.39
2018-02-04T12:51:33.863Z,102178.80
2018-02-04T12:53:59.638Z,102182.22
2018-02-04T12:56:25.398Z,102181.31
2018-02-04T12:58:51.164Z,102187.88
2018-02-04T13:01:16.927Z,102188.83
2018-02-04T13:03:42.690Z,102190.54
2018-02-04T13:06:08.458Z,102192.69
2018-02-04T13:08:34.195Z,102195.89
2018-02-04T13:10:59.956Z,102195.70
2018-02-04T13:13:25.722Z,102201.02
2018-02-04T13:15:51.556Z,102215.47
2018-02-04T13:18:17.343Z,102216.17
2018-02-04T13:20:43.094Z,102214.51
2018-02-04T13:23:08.870Z,102218.94
2018-02-04T13:25:34.627Z,102218.23
2018-02-04T13:28:00.392Z,102224.16
2018-02-04T13:30:26.139Z,102217.19
2018-02-04T13:32:51.906Z,102224.66
2018-02-04T13:35:17.666Z,102228.62
2018-02-04T13:37:43.439Z,102230.88
2018-02-04T13:40:09.182Z,102236.54
2018-02-04T13:42:34.946Z,102244.36
2018-02-04T13:45:00.704Z,102242.16
2018-02-04T13:47:26.474Z,102241.34
2018-02-04T13:49:52.238Z,102246.56
2018-02-04T13:52:18.055Z,102251.78
2018-02-04T13:54:43.823Z,102256.14
2018-02-04T13:57:09.594Z,102253.13
2018-02-04T13:59:35.406Z,102260.05
2018-02-04T14:02:01.146Z,102259.30
2018-02-04T14:04:26.915Z,102267.92
2018-02-04T14:06:52.689Z,102265.27
2018-02-04T14:09:20.283Z,102269.23
2018-02-04T14:11:46.168Z,102277.55
2018-02-04T14:14:11.939Z,102274.48
2018-02-04T14:16:38.551Z,102283.20
2018-02-04T14:19:04.342Z,102286.25
2018-02-04T14:21:30.161Z,102286.66
2018-02-04T14:23:56.080Z,102289.67
2018-02-04T14:26:21.831Z,102289.66
2018-02-04T14:28:49.445Z,102289.66
2018-02-04T14:31:16.236Z,102296.94
2018-02-04T14:33:42.234Z,102305.20
2018-02-04T14:36:08.031Z,102306.50
2018-02-04T14:38:33.784Z,102318.13
2018-02-04T14:40:59.534Z,102319.94
2018-02-04T14:43:27.038Z,102309.91
2018-02-04T14:45:53.995Z,102312.95
2018-02-04T14:48:20.176Z,102322.55
2018-02-04T14:50:46.000Z,102329.06
2018-02-04T14:53:11.917Z,102328.31
2018-02-04T14:55:37.675Z,102331.66
2018-02-04T14:58:03.443Z,102342.94
2018-02-04T15:00:29.200Z,102343.39
2018-02-04T15:02:54.965Z,102344.23
2018-02-04T15:05:20.731Z,102344.17
2018-02-04T15:07:46.483Z,102350.19
2018-02-04T15:10:12.282Z,102356.70
2018-02-04T15:12:38.048Z,102358.45
2018-02-04T15:17:45.693Z,102366.17
2018-02-04T15:20:11.460Z,102371.03
2018-02-04T15:22:37.215Z,102383.63
2018-02-04T15:25:02.986Z,102384.92
2018-02-04T15:27:28.765Z,102391.48
2018-02-04T15:29:54.703Z,102401.51
2018-02-04T15:32:20.626Z,102397.71
2018-02-04T15:34:46.615Z,102404.58
2018-02-04T15:37:12.406Z,102405.89
2018-02-04T15:39:38.197Z,102403.27
2018-02-04T15:42:04.197Z,102415.00
2018-02-04T15:44:29.973Z,102411.16
2018-02-04T15:46:55.752Z,102416.01
2018-02-04T15:49:21.579Z,102415.85
2018-02-04T15:51:47.400Z,102413.75
2018-02-04T15:54:13.309Z,102421.96
2018-02-04T15:56:39.278Z,102418.12
2018-02-04T15:59:05.335Z,102414.25
2018-02-04T16:01:31.107Z,102425.99
2018-02-04T16:03:56.863Z,102427.30
2018-02-04T16:06:22.631Z,102439.19
2018-02-04T16:08:48.382Z,102441.50
2018-02-04T16:11:14.328Z,102444.06
2018-02-04T16:13:41.084Z,102451.53
2018-02-04T16:16:06.992Z,102444.95
2018-02-04T16:18:32.768Z,102457.59
2018-02-04T16:20:58.543Z,102461.05
2018-02-04T16:23:24.315Z,102458.00
2018-02-04T16:25:50.084Z,102473.30
2018-02-04T16:28:15.870Z,102476.85
2018-02-04T16:30:41.650Z,102476.81
2018-02-04T16:33:07.438Z,102486.03
2018-02-04T16:35:33.569Z,102484.67
2018-02-04T16:37:59.375Z,102486.09
2018-02-04T16:40:25.247Z,102488.70
2018-02-04T16:42:51.346Z,102495.74
2018-02-04T16:45:17.260Z,102504.34
2018-02-04T16:47:44.057Z,102508.31
2018-02-04T16:50:09.898Z,102505.38
2018-02-04T16:52:36.045Z,102517.50
2018-02-04T16:55:02.894Z,102522.20
2018-02-04T16:57:28.718Z,102529.22
2018-02-04T16:59:54.501Z,102529.16
2018-02-04T17:02:20.905Z,102530.47
2018-02-04T17:04:47.179Z,102536.09
2018-02-04T17:07:13.578Z,102543.05
2018-02-04T17:09:39.727Z,102538.30
2018-02-04T17:12:06.828Z,102548.39
2018-02-04T17:14:32.582Z,102543.98
2018-02-04T17:16:58.348Z,102553.09
2018-02-04T17:19:24.123Z,102548.34
2018-02-04T17:21:49.882Z,102557.45
2018-02-04T17:24:15.642Z,102560.97
2018-02-04T17:26:41.400Z,102561.92
2018-02-04T17:29:07.170Z,102560.00
2018-02-04T17:31:32.926Z,102559.61
2018-02-04T17:33:58.700Z,102563.69
2018-02-04T17:36:24.446Z,102569.30
2018-02-04T17:38:50.222Z,102567.50
2018-02-04T17:41:15.994Z,102576.67
2018-02-04T17:43:41.765Z,102581.78
2018-02-04T17:46:07.559Z,102583.59
2018-02-04T17:48:33.349Z,102585.80
2018-02-04T17:50:59.119Z,102592.82
2018-02-04T17:53:24.886Z,102597.98
2018-02-04T17:55:50.649Z,102612.78
2018-02-04T17:58:16.426Z,102619.36
2018-02-04T18:00:42.262Z,102613.63
2018-02-04T18:03:08.025Z,102617.88
2018-02-04T18:05:33.808Z,102619.30
2018-02-04T18:07:59.543Z,102622.36
2018-02-04T18:10:25.293Z,102627.58
2018-02-04T18:12:51.049Z,102625.86
2018-02-04T18:15:16.802Z,102628.88
2018-02-04T18:17:42.551Z,102636.30
2018-02-04T18:20:08.380Z,102635.52
2018-02-04T18:22:34.139Z,102633.70
2018-02-04T18:24:59.906Z,102637.20
2018-02-04T18:27:25.662Z,102645.77
2018-02-04T18:29:51.428Z,102643.17
2018-02-04T18:32:17.191Z,102646.61
2018-02-04T18:34:42.958Z,102652.28
2018-02-04T18:37:08.719Z,102657.16
2018-02-04T18:39:34.483Z,102660.94
2018-02-04T18:42:00.240Z,102657.95
2018-02-04T18:44:26.031Z,102663.28
2018-02-04T18:46:51.779Z,102664.40
2018-02-04T18:49:17.542Z,102671.38
2018-02-04T18:51:43.311Z,102671.27
2018-02-04T18:54:09.091Z,102668.20
2018-02-04T18:56:34.850Z,102672.97
2018-02-04T18:59:00.634Z,102677.31
2018-02-04T19:01:26.380Z,102680.73
2018-02-04T19:03:52.139Z,102682.94
2018-02-04T19:06:17.909Z,102684.70
2018-02-04T19:08:43.671Z,102687.29
2018-02-04T19:11:09.442Z,102687.63
2018-02-04T19:13:35.192Z,102693.75
2018-02-04T19:16:00.964Z,102700.27
2018-02-04T19:18:26.722Z,102703.77
2018-02-04T19:20:52.483Z,102705.14
2018-02-04T19:23:18.238Z,102704.70
2018-02-04T19:25:44.019Z,102707.17
2018-02-04T19:28:09.761Z,102717.66
2018-02-04T19:30:35.548Z,102715.06
2018-02-04T19:33:01.307Z,102720.67
2018-02-04T19:35:27.083Z,102722.88
2018-02-04T19:37:52.839Z,102727.66
2018-02-04T19:40:18.599Z,102736.30
2018-02-04T19:42:44.353Z,102736.70
2018-02-04T19:45:10.112Z,102750.66
2018-02-04T19:47:35.874Z,102748.88
2018-02-04T19:50:01.642Z,102753.26
2018-02-04T19:52:27.412Z,102752.48
2018-02-04T19:54:53.174Z,102753.33
2018-02-04T19:57:18.953Z,102752.98
2018-02-04T19:59:44.712Z,102758.94
2018-02-04T20:02:10.477Z,102757.70
2018-02-04T20:04:36.249Z,102759.89
2018-02-04T20:07:02.019Z,102757.16
2018-02-04T20:09:27.767Z,102755.03
2018-02-04T20:11:53.583Z,102751.04
2018-02-04T20:14:19.337Z,102760.10
2018-02-04T20:16:45.078Z,102758.27
2018-02-04T20:19:10.832Z,102765.14
2018-02-04T20:21:36.594Z,102760.63
2018-02-04T20:24:02.360Z,102763.70
2018-02-04T20:26:28.151Z,102762.05
2018-02-04T20:28:53.898Z,102762.53
2018-02-04T20:31:19.698Z,102772.94
2018-02-04T20:33:58.005Z,102783.63
2018-02-04T20:36:23.778Z,102786.25
2018-02-04T20:38:49.525Z,102791.91
2018-02-04T20:41:15.286Z,102782.05
2018-02-04T20:43:41.042Z,102790.20
2018-02-04T20:46:06.779Z,102787.80
2018-02-04T20:48:32.531Z,102786.89
2018-02-04T20:50:58.312Z,102787.80
2018-02-04T20:53:24.043Z,102793.92
2018-02-04T20:55:49.794Z,102793.59
2018-02-04T20:58:15.564Z,102792.22
2018-02-04T21:00:41.323Z,102803.70
2018-02-04T21:03:07.095Z,102797.19
2018-02-04T21:05:32.860Z,102802.39
2018-02-04T21:07:58.623Z,102806.36
2018-02-04T21:10:24.387Z,102807.61
2018-02-04T21:12:50.143Z,102815.69
2018-02-04T21:15:15.906Z,102821.69
2018-02-04T21:17:41.666Z,102823.05
2018-02-04T21:20:07.415Z,102822.41
2018-02-04T21:22:33.215Z,102828.35
2018-02-04T21:24:58.962Z,102834.52
2018-02-04T21:27:24.720Z,102836.30
2018-02-04T21:29:50.475Z,102839.62
2018-02-04T21:32:16.234Z,102837.98
2018-02-04T21:34:42.248Z,102834.08
2018-02-04T21:37:08.019Z,102841.44
2018-02-04T21:39:33.790Z,102843.64
2018-02-04T21:41:59.553Z,102837.48
2018-02-04T21:44:25.292Z,102836.56
2018-02-04T21:46:51.055Z,102843.53
2018-02-04T21:49:16.822Z,102847.36
2018-02-04T21:51:42.576Z,102855.13
2018-02-04T21:54:08.329Z,102853.31
2018-02-04T21:56:34.078Z,102858.58
2018-02-04T21:58:59.848Z,102855.84
2018-02-04T22:01:26.499Z,102872.93
2018-02-04T22:03:52.302Z,102873.19
2018-02-04T22:06:18.056Z,102869.20
2018-02-04T22:08:43.839Z,102863.92
2018-02-04T22:11:09.583Z,102873.03
2018-02-04T22:13:35.332Z,102871.75
2018-02-04T22:16:02.535Z,102878.20
2018-02-04T22:18:28.282Z,102884.20
2018-02-04T22:20:54.040Z,102883.98
2018-02-04T22:23:19.804Z,102870.37
2018-02-04T22:25:45.563Z,102878.05
2018-02-04T22:28:11.637Z,102880.52
2018-02-04T22:30:37.557Z,102878.64
2018-02-04T22:33:03.343Z,102888.73
2018-02-04T22:35:29.418Z,102885.01
2018-02-04T22:37:55.195Z,102884.42
2018-02-04T22:40:21.523Z,102888.66
2018-02-04T22:42:47.266Z,102899.38
2018-02-04T22:45:13.040Z,102896.70
2018-02-04T22:47:38.790Z,102898.53
2018-02-04T22:50:04.554Z,102908.36
2018-02-04T22:52:30.326Z,102910.05
2018-02-04T22:54:56.163Z,102906.34
2018-02-04T22:57:21.942Z,102904.81
2018-02-04T22:59:47.723Z,102911.42
2018-02-04T23:02:13.496Z,102907.11
2018-02-04T23:04:39.256Z,102904.50
2018-02-04T23:07:05.032Z,102907.70
2018-02-04T23:09:31.211Z,102906.33
2018-02-04T23:11:56.994Z,102906.78
2018-02-04T23:14:22.740Z,102906.02
2018-02-04T23:16:48.520Z,102910.11
2018-02-04T23:19:14.259Z,102906.47
2018-02-04T23:21:40.040Z,102904.78
2018-02-04T23:24:05.792Z,102903.86
2018-02-04T23:26:31.553Z,102898.67
2018-02-04T23:28:57.348Z,102909.14
2018-02-04T23:31:23.102Z,102908.77
2018-02-04T23:33:48.863Z,102913.14
2018-02-04T23:36:14.647Z,102906.67
2018-02-04T23:38:41.316Z,102921.39
2018-02-04T23:41:07.067Z,102915.81
2018-02-04T23:43:32.835Z,102916.31
2018-02-04T23:45:58.630Z,102914.11
2018-02-04T23:48:24.354Z,102917.62
2018-02-04T23:50:50.103Z,102915.53
2018-02-04T23:53:15.859Z,102915.23
2018-02-04T23:55:41.618Z,102910.93
2018-02-04T23:58:07.365Z,102920.91
